Terminal Aerodrome Forecast
Issued by NWS Pueblo, CO

Home | Current Version | Previous Version | Text Only | Print | Product List | Glossary On
Versions: 1 2 3 4 5 6 7 8 9 10 11 12 13 14 15 16 17 18 19 20 21 22 23 24 25 26 27 28 29 30 31 32 33 34 35
000
FTUS45 KPUB 011741
TAFCOS
TAF
KCOS 011741Z 0118/0218 16012KT P6SM SCT080 BKN140
     FM012100 21012KT P6SM VCTS SCT040CB BKN080
      TEMPO 0122/0201 VRB15G25KT -SHRA BKN040
     FM020100 35018G28KT P6SM VCSH SCT040 BKN080
     FM020600 34012G22KT P6SM SCT050 BKN100
     FM021200 34012KT P6SM FEW100=

USA.gov is the U.S. government's official web portal to all federal, state and local government web resources and services.